sensor_id;sensor_type;location;lat;lon;timestamp;temperature;humidity
3954;DHT22;1991;48.682;9.030;2023-05-07T00:01:40;13.80;99.90
3954;DHT22;1991;48.682;9.030;2023-05-07T00:04:06;13.70;99.90
3954;DHT22;1991;48.682;9.030;2023-05-07T00:06:33;13.70;99.90
3954;DHT22;1991;48.682;9.030;2023-05-07T00:08:59;13.70;99.90
3954;DHT22;1991;48.682;9.030;2023-05-07T00:11:26;13.80;99.90
3954;DHT22;1991;48.682;9.030;2023-05-07T00:13:52;13.80;99.90
3954;DHT22;1991;48.682;9.030;2023-05-07T00:16:18;13.80;99.90
3954;DHT22;1991;48.682;9.030;2023-05-07T00:18:43;13.80;99.90
3954;DHT22;1991;48.682;9.030;2023-05-07T00:21:09;13.80;99.90
3954;DHT22;1991;48.682;9.030;2023-05-07T00:23:35;13.80;99.90
3954;DHT22;1991;48.682;9.030;2023-05-07T00:26:01;13.80;99.90
3954;DHT22;1991;48.682;9.030;2023-05-07T00:28:26;13.80;99.90
3954;DHT22;1991;48.682;9.030;2023-05-07T00:30:52;13.80;99.90
3954;DHT22;1991;48.682;9.030;2023-05-07T00:33:18;13.80;99.90
3954;DHT22;1991;48.682;9.030;2023-05-07T00:35:45;13.70;99.90
3954;DHT22;1991;48.682;9.030;2023-05-07T00:38:11;13.70;99.90
3954;DHT22;1991;48.682;9.030;2023-05-07T00:40:37;13.70;99.90
3954;DHT22;1991;48.682;9.030;2023-05-07T00:43:06;13.60;99.90
3954;DHT22;1991;48.682;9.030;2023-05-07T00:45:33;13.60;99.90
3954;DHT22;1991;48.682;9.030;2023-05-07T00:48:02;13.60;99.90
3954;DHT22;1991;48.682;9.030;2023-05-07T00:50:28;13.70;99.90
3954;DHT22;1991;48.682;9.030;2023-05-07T00:52:55;13.70;99.90
3954;DHT22;1991;48.682;9.030;2023-05-07T00:55:22;13.60;99.90
3954;DHT22;1991;48.682;9.030;2023-05-07T00:57:50;13.70;99.90
3954;DHT22;1991;48.682;9.030;2023-05-07T01:00:16;13.60;99.90
3954;DHT22;1991;48.682;9.030;2023-05-07T01:02:43;13.60;99.90
3954;DHT22;1991;48.682;9.030;2023-05-07T01:05:13;13.60;99.90
3954;DHT22;1991;48.682;9.030;2023-05-07T01:07:41;13.60;99.90
3954;DHT22;1991;48.682;9.030;2023-05-07T01:10:07;13.60;99.90
3954;DHT22;1991;48.682;9.030;2023-05-07T01:12:37;13.60;99.90
3954;DHT22;1991;48.682;9.030;2023-05-07T01:15:04;13.60;99.90
3954;DHT22;1991;48.682;9.030;2023-05-07T01:17:40;13.60;99.90
3954;DHT22;1991;48.682;9.030;2023-05-07T01:20:07;13.50;99.90
3954;DHT22;1991;48.682;9.030;2023-05-07T01:22:37;13.50;99.90
3954;DHT22;1991;48.682;9.030;2023-05-07T01:25:04;13.50;99.90
3954;DHT22;1991;48.682;9.030;2023-05-07T01:27:30;13.50;99.90
3954;DHT22;1991;48.682;9.030;2023-05-07T01:29:55;13.40;99.90
3954;DHT22;1991;48.682;9.030;2023-05-07T01:32:30;13.40;99.90
3954;DHT22;1991;48.682;9.030;2023-05-07T01:38:21;13.40;99.90
3954;DHT22;1991;48.682;9.030;2023-05-07T01:40:47;13.40;99.90
3954;DHT22;1991;48.682;9.030;2023-05-07T01:43:13;13.40;99.90
3954;DHT22;1991;48.682;9.030;2023-05-07T01:45:40;13.30;99.90
3954;DHT22;1991;48.682;9.030;2023-05-07T01:48:07;13.30;99.90
3954;DHT22;1991;48.682;9.030;2023-05-07T01:50:33;13.30;99.90
3954;DHT22;1991;48.682;9.030;2023-05-07T01:53:01;13.20;99.90
3954;DHT22;1991;48.682;9.030;2023-05-07T01:55:27;13.20;99.90
3954;DHT22;1991;48.682;9.030;2023-05-07T01:57:53;13.20;99.90
3954;DHT22;1991;48.682;9.030;2023-05-07T02:00:19;13.20;99.90
3954;DHT22;1991;48.682;9.030;2023-05-07T02:02:45;13.20;99.90
3954;DHT22;1991;48.682;9.030;2023-05-07T02:05:11;13.20;99.90
3954;DHT22;1991;48.682;9.030;2023-05-07T02:07:36;13.20;99.90
3954;DHT22;1991;48.682;9.030;2023-05-07T02:10:02;13.10;99.90
3954;DHT22;1991;48.682;9.030;2023-05-07T02:12:28;13.10;99.90
3954;DHT22;1991;48.682;9.030;2023-05-07T02:14:54;13.10;99.90
3954;DHT22;1991;48.682;9.030;2023-05-07T02:17:20;13.10;99.90
3954;DHT22;1991;48.682;9.030;2023-05-07T02:19:45;13.10;99.90
3954;DHT22;1991;48.682;9.030;2023-05-07T02:22:11;13.10;99.90
3954;DHT22;1991;48.682;9.030;2023-05-07T02:24:36;13.00;99.90
3954;DHT22;1991;48.682;9.030;2023-05-07T02:27:02;13.00;99.90
3954;DHT22;1991;48.682;9.030;2023-05-07T02:29:28;12.90;99.90
3954;DHT22;1991;48.682;9.030;2023-05-07T02:31:54;12.90;99.90
3954;DHT22;1991;48.682;9.030;2023-05-07T02:34:21;12.90;99.90
3954;DHT22;1991;48.682;9.030;2023-05-07T02:36:46;12.80;99.90
3954;DHT22;1991;48.682;9.030;2023-05-07T02:39:13;12.80;99.90
3954;DHT22;1991;48.682;9.030;2023-05-07T02:41:38;12.80;99.90
3954;DHT22;1991;48.682;9.030;2023-05-07T02:44:04;12.80;99.90
3954;DHT22;1991;48.682;9.030;2023-05-07T02:46:30;12.80;99.90
3954;DHT22;1991;48.682;9.030;2023-05-07T02:48:56;12.70;99.90
3954;DHT22;1991;48.682;9.030;2023-05-07T02:51:22;12.70;99.90
3954;DHT22;1991;48.682;9.030;2023-05-07T02:53:48;12.70;99.90
3954;DHT22;1991;48.682;9.030;2023-05-07T02:56:14;12.70;99.90
3954;DHT22;1991;48.682;9.030;2023-05-07T02:58:40;12.70;99.90
3954;DHT22;1991;48.682;9.030;2023-05-07T03:01:07;12.70;99.90
3954;DHT22;1991;48.682;9.030;2023-05-07T03:03:34;12.60;99.90
3954;DHT22;1991;48.682;9.030;2023-05-07T03:05:59;12.60;99.90
3954;DHT22;1991;48.682;9.030;2023-05-07T03:08:25;12.60;99.90
3954;DHT22;1991;48.682;9.030;2023-05-07T03:10:51;12.60;99.90
3954;DHT22;1991;48.682;9.030;2023-05-07T03:13:17;12.60;99.90
3954;DHT22;1991;48.682;9.030;2023-05-07T03:15:43;12.50;99.90
3954;DHT22;1991;48.682;9.030;2023-05-07T03:18:08;12.40;99.90
3954;DHT22;1991;48.682;9.030;2023-05-07T03:20:34;12.40;99.90
3954;DHT22;1991;48.682;9.030;2023-05-07T03:23:01;12.40;99.90
3954;DHT22;1991;48.682;9.030;2023-05-07T03:25:27;12.30;99.90
3954;DHT22;1991;48.682;9.030;2023-05-07T03:27:53;12.30;99.90
3954;DHT22;1991;48.682;9.030;2023-05-07T03:30:19;12.30;99.90
3954;DHT22;1991;48.682;9.030;2023-05-07T03:32:45;12.30;99.90
3954;DHT22;1991;48.682;9.030;2023-05-07T03:35:11;12.30;99.90
3954;DHT22;1991;48.682;9.030;2023-05-07T03:37:37;12.20;99.90
3954;DHT22;1991;48.682;9.030;2023-05-07T03:40:04;12.30;99.90
3954;DHT22;1991;48.682;9.030;2023-05-07T03:42:30;12.20;99.90
3954;DHT22;1991;48.682;9.030;2023-05-07T03:44:56;12.20;99.90
3954;DHT22;1991;48.682;9.030;2023-05-07T03:47:21;12.20;99.90
3954;DHT22;1991;48.682;9.030;2023-05-07T03:49:47;12.20;99.90
3954;DHT22;1991;48.682;9.030;2023-05-07T03:52:14;12.30;99.90
3954;DHT22;1991;48.682;9.030;2023-05-07T03:54:40;12.20;99.90
3954;DHT22;1991;48.682;9.030;2023-05-07T03:57:06;12.20;99.90
3954;DHT22;1991;48.682;9.030;2023-05-07T03:59:32;12.20;99.90
3954;DHT22;1991;48.682;9.030;2023-05-07T04:01:58;12.20;99.90
3954;DHT22;1991;48.682;9.030;2023-05-07T04:04:23;12.20;99.90
3954;DHT22;1991;48.682;9.030;2023-05-07T04:06:49;12.20;99.90
3954;DHT22;1991;48.682;9.030;2023-05-07T04:09:15;12.10;99.90
3954;DHT22;1991;48.682;9.030;2023-05-07T04:11:40;12.10;99.90
3954;DHT22;1991;48.682;9.030;2023-05-07T04:14:06;12.10;99.90
3954;DHT22;1991;48.682;9.030;2023-05-07T04:16:32;12.20;99.90
3954;DHT22;1991;48.682;9.030;2023-05-07T04:18:57;12.10;99.90
3954;DHT22;1991;48.682;9.030;2023-05-07T04:21:23;12.10;99.90
3954;DHT22;1991;48.682;9.030;2023-05-07T04:23:49;12.10;99.90
3954;DHT22;1991;48.682;9.030;2023-05-07T04:26:15;12.10;99.90
3954;DHT22;1991;48.682;9.030;2023-05-07T04:28:41;12.10;99.90
3954;DHT22;1991;48.682;9.030;2023-05-07T04:31:38;12.10;99.90
3954;DHT22;1991;48.682;9.030;2023-05-07T04:34:04;12.00;99.90
3954;DHT22;1991;48.682;9.030;2023-05-07T04:36:30;12.00;99.90
3954;DHT22;1991;48.682;9.030;2023-05-07T04:38:55;12.10;99.90
3954;DHT22;1991;48.682;9.030;2023-05-07T04:41:21;12.10;99.90
3954;DHT22;1991;48.682;9.030;2023-05-07T04:43:47;12.10;99.90
3954;DHT22;1991;48.682;9.030;2023-05-07T04:46:12;12.20;99.90
3954;DHT22;1991;48.682;9.030;2023-05-07T04:48:38;12.10;99.90
3954;DHT22;1991;48.682;9.030;2023-05-07T04:51:03;12.10;99.90
3954;DHT22;1991;48.682;9.030;2023-05-07T04:53:29;12.10;99.90
3954;DHT22;1991;48.682;9.030;2023-05-07T04:55:56;12.10;99.90
3954;DHT22;1991;48.682;9.030;2023-05-07T04:58:24;12.10;99.90
3954;DHT22;1991;48.682;9.030;2023-05-07T05:00:50;12.20;99.90
3954;DHT22;1991;48.682;9.030;2023-05-07T05:03:16;12.20;99.90
3954;DHT22;1991;48.682;9.030;2023-05-07T05:05:42;12.20;99.90
3954;DHT22;1991;48.682;9.030;2023-05-07T05:08:07;12.20;99.90
3954;DHT22;1991;48.682;9.030;2023-05-07T05:10:33;12.20;99.90
3954;DHT22;1991;48.682;9.030;2023-05-07T05:12:58;12.30;99.90
3954;DHT22;1991;48.682;9.030;2023-05-07T05:15:24;12.30;99.90
3954;DHT22;1991;48.682;9.030;2023-05-07T05:17:50;12.40;99.90
3954;DHT22;1991;48.682;9.030;2023-05-07T05:20:15;12.60;99.90
3954;DHT22;1991;48.682;9.030;2023-05-07T05:22:42;12.70;99.90
3954;DHT22;1991;48.682;9.030;2023-05-07T05:25:07;12.80;99.90
3954;DHT22;1991;48.682;9.030;2023-05-07T05:27:34;12.90;99.90
3954;DHT22;1991;48.682;9.030;2023-05-07T05:30:00;13.00;99.90
3954;DHT22;1991;48.682;9.030;2023-05-07T05:32:26;13.10;99.90
3954;DHT22;1991;48.682;9.030;2023-05-07T05:34:51;13.30;99.90
3954;DHT22;1991;48.682;9.030;2023-05-07T05:37:17;13.40;99.90
3954;DHT22;1991;48.682;9.030;2023-05-07T05:39:43;13.60;99.90
3954;DHT22;1991;48.682;9.030;2023-05-07T05:42:09;13.80;99.90
3954;DHT22;1991;48.682;9.030;2023-05-07T05:44:35;14.00;99.90
3954;DHT22;1991;48.682;9.030;2023-05-07T05:47:00;14.10;99.90
3954;DHT22;1991;48.682;9.030;2023-05-07T05:49:26;14.20;99.90
3954;DHT22;1991;48.682;9.030;2023-05-07T05:51:51;14.20;99.90
3954;DHT22;1991;48.682;9.030;2023-05-07T05:54:17;14.20;99.90
3954;DHT22;1991;48.682;9.030;2023-05-07T05:56:43;14.20;99.90
3954;DHT22;1991;48.682;9.030;2023-05-07T05:59:09;14.20;99.90
3954;DHT22;1991;48.682;9.030;2023-05-07T06:01:35;14.40;99.90
3954;DHT22;1991;48.682;9.030;2023-05-07T06:04:00;14.60;99.90
3954;DHT22;1991;48.682;9.030;2023-05-07T06:06:26;14.90;99.90
3954;DHT22;1991;48.682;9.030;2023-05-07T06:08:52;15.30;99.90
3954;DHT22;1991;48.682;9.030;2023-05-07T06:11:18;15.50;99.90
3954;DHT22;1991;48.682;9.030;2023-05-07T06:13:43;15.70;99.90
3954;DHT22;1991;48.682;9.030;2023-05-07T06:16:09;15.90;99.90
3954;DHT22;1991;48.682;9.030;2023-05-07T06:18:35;16.10;99.90
3954;DHT22;1991;48.682;9.030;2023-05-07T06:21:04;16.40;99.90
3954;DHT22;1991;48.682;9.030;2023-05-07T06:23:30;16.50;99.90
3954;DHT22;1991;48.682;9.030;2023-05-07T06:25:55;17.00;99.90
3954;DHT22;1991;48.682;9.030;2023-05-07T06:28:21;17.20;99.90
3954;DHT22;1991;48.682;9.030;2023-05-07T06:30:47;17.30;99.90
3954;DHT22;1991;48.682;9.030;2023-05-07T06:33:14;17.40;97.90
3954;DHT22;1991;48.682;9.030;2023-05-07T06:35:39;17.60;96.30
3954;DHT22;1991;48.682;9.030;2023-05-07T06:38:05;17.60;94.60
3954;DHT22;1991;48.682;9.030;2023-05-07T06:43:52;17.50;94.80
3954;DHT22;1991;48.682;9.030;2023-05-07T06:46:18;17.50;94.50
3954;DHT22;1991;48.682;9.030;2023-05-07T06:48:44;17.70;94.70
3954;DHT22;1991;48.682;9.030;2023-05-07T06:51:09;18.00;95.20
3954;DHT22;1991;48.682;9.030;2023-05-07T06:53:35;18.20;94.40
3954;DHT22;1991;48.682;9.030;2023-05-07T06:56:01;18.30;93.40
3954;DHT22;1991;48.682;9.030;2023-05-07T06:58:26;18.60;93.10
3954;DHT22;1991;48.682;9.030;2023-05-07T07:00:52;19.10;91.60
3954;DHT22;1991;48.682;9.030;2023-05-07T07:03:18;19.30;91.90
3954;DHT22;1991;48.682;9.030;2023-05-07T07:05:43;19.50;89.80
3954;DHT22;1991;48.682;9.030;2023-05-07T07:08:10;19.90;87.30
3954;DHT22;1991;48.682;9.030;2023-05-07T07:10:35;20.00;85.20
3954;DHT22;1991;48.682;9.030;2023-05-07T07:13:01;19.80;84.30
3954;DHT22;1991;48.682;9.030;2023-05-07T07:15:27;19.80;84.80
3954;DHT22;1991;48.682;9.030;2023-05-07T07:17:52;19.70;83.60
3954;DHT22;1991;48.682;9.030;2023-05-07T07:20:18;19.80;85.30
3954;DHT22;1991;48.682;9.030;2023-05-07T07:22:44;20.10;83.60
3954;DHT22;1991;48.682;9.030;2023-05-07T07:25:09;20.10;82.00
3954;DHT22;1991;48.682;9.030;2023-05-07T07:27:36;20.20;83.10
3954;DHT22;1991;48.682;9.030;2023-05-07T07:30:02;20.10;82.10
3954;DHT22;1991;48.682;9.030;2023-05-07T07:32:28;19.90;83.00
3954;DHT22;1991;48.682;9.030;2023-05-07T07:34:53;20.10;81.60
3954;DHT22;1991;48.682;9.030;2023-05-07T07:37:19;20.40;82.30
3954;DHT22;1991;48.682;9.030;2023-05-07T07:39:45;20.50;81.10
3954;DHT22;1991;48.682;9.030;2023-05-07T07:42:11;20.20;80.40
3954;DHT22;1991;48.682;9.030;2023-05-07T07:44:36;20.20;80.60
3954;DHT22;1991;48.682;9.030;2023-05-07T07:47:02;20.40;81.10
3954;DHT22;1991;48.682;9.030;2023-05-07T07:49:27;20.50;80.70
3954;DHT22;1991;48.682;9.030;2023-05-07T07:51:53;20.50;78.70
3954;DHT22;1991;48.682;9.030;2023-05-07T07:54:19;20.40;79.00
3954;DHT22;1991;48.682;9.030;2023-05-07T07:56:44;20.30;79.70
3954;DHT22;1991;48.682;9.030;2023-05-07T07:59:10;20.50;80.00
3954;DHT22;1991;48.682;9.030;2023-05-07T08:01:36;20.70;79.40
3954;DHT22;1991;48.682;9.030;2023-05-07T08:04:01;21.00;75.60
3954;DHT22;1991;48.682;9.030;2023-05-07T08:06:28;21.40;75.20
3954;DHT22;1991;48.682;9.030;2023-05-07T08:08:54;21.60;74.60
3954;DHT22;1991;48.682;9.030;2023-05-07T08:11:20;21.90;73.90
3954;DHT22;1991;48.682;9.030;2023-05-07T08:13:46;21.90;71.40
3954;DHT22;1991;48.682;9.030;2023-05-07T08:16:12;21.90;70.60
3954;DHT22;1991;48.682;9.030;2023-05-07T08:18:38;21.80;69.90
3954;DHT22;1991;48.682;9.030;2023-05-07T08:21:04;22.00;70.10
3954;DHT22;1991;48.682;9.030;2023-05-07T08:23:29;22.10;68.90
3954;DHT22;1991;48.682;9.030;2023-05-07T08:25:55;21.90;69.20
3954;DHT22;1991;48.682;9.030;2023-05-07T08:28:21;22.00;69.30
3954;DHT22;1991;48.682;9.030;2023-05-07T08:30:47;21.70;70.00
3954;DHT22;1991;48.682;9.030;2023-05-07T08:33:13;21.90;70.20
3954;DHT22;1991;48.682;9.030;2023-05-07T08:35:38;22.60;69.50
3954;DHT22;1991;48.682;9.030;2023-05-07T08:38:04;22.70;68.00
3954;DHT22;1991;48.682;9.030;2023-05-07T08:40:35;22.90;67.50
3954;DHT22;1991;48.682;9.030;2023-05-07T08:43:02;23.10;66.10
3954;DHT22;1991;48.682;9.030;2023-05-07T08:45:29;23.30;67.30
3954;DHT22;1991;48.682;9.030;2023-05-07T08:47:59;23.30;63.90
3954;DHT22;1991;48.682;9.030;2023-05-07T08:50:25;23.30;64.10
3954;DHT22;1991;48.682;9.030;2023-05-07T08:52:51;23.40;63.40
3954;DHT22;1991;48.682;9.030;2023-05-07T08:55:17;23.40;62.70
3954;DHT22;1991;48.682;9.030;2023-05-07T08:57:43;23.60;63.00
3954;DHT22;1991;48.682;9.030;2023-05-07T09:00:08;23.60;63.70
3954;DHT22;1991;48.682;9.030;2023-05-07T09:02:35;23.70;62.00
3954;DHT22;1991;48.682;9.030;2023-05-07T09:05:01;23.60;63.40
3954;DHT22;1991;48.682;9.030;2023-05-07T09:07:27;23.60;62.70
3954;DHT22;1991;48.682;9.030;2023-05-07T09:09:53;23.40;61.60
3954;DHT22;1991;48.682;9.030;2023-05-07T09:12:21;23.60;61.90
3954;DHT22;1991;48.682;9.030;2023-05-07T09:14:47;23.90;62.20
3954;DHT22;1991;48.682;9.030;2023-05-07T09:17:13;23.90;62.00
3954;DHT22;1991;48.682;9.030;2023-05-07T09:19:39;24.60;61.30
3954;DHT22;1991;48.682;9.030;2023-05-07T09:22:06;24.30;60.90
3954;DHT22;1991;48.682;9.030;2023-05-07T09:24:34;24.10;60.70
3954;DHT22;1991;48.682;9.030;2023-05-07T09:27:06;24.40;59.90
3954;DHT22;1991;48.682;9.030;2023-05-07T09:29:32;25.00;60.60
3954;DHT22;1991;48.682;9.030;2023-05-07T09:32:09;25.50;58.70
3954;DHT22;1991;48.682;9.030;2023-05-07T09:34:36;25.90;60.30
3954;DHT22;1991;48.682;9.030;2023-05-07T09:37:06;25.70;57.70
3954;DHT22;1991;48.682;9.030;2023-05-07T09:39:43;25.50;58.50
3954;DHT22;1991;48.682;9.030;2023-05-07T09:42:09;25.50;57.30
3954;DHT22;1991;48.682;9.030;2023-05-07T09:44:35;25.80;57.80
3954;DHT22;1991;48.682;9.030;2023-05-07T09:47:04;26.20;57.50
3954;DHT22;1991;48.682;9.030;2023-05-07T09:49:30;26.30;55.60
3954;DHT22;1991;48.682;9.030;2023-05-07T09:52:00;26.10;55.90
3954;DHT22;1991;48.682;9.030;2023-05-07T09:54:26;26.10;55.80
3954;DHT22;1991;48.682;9.030;2023-05-07T09:56:54;25.90;55.50
3954;DHT22;1991;48.682;9.030;2023-05-07T09:59:21;26.20;55.40
3954;DHT22;1991;48.682;9.030;2023-05-07T10:01:48;26.10;54.30
3954;DHT22;1991;48.682;9.030;2023-05-07T10:04:14;26.40;55.70
3954;DHT22;1991;48.682;9.030;2023-05-07T10:06:40;26.70;54.20
3954;DHT22;1991;48.682;9.030;2023-05-07T10:09:07;27.00;53.50
3954;DHT22;1991;48.682;9.030;2023-05-07T10:11:36;26.80;54.10
3954;DHT22;1991;48.682;9.030;2023-05-07T10:14:03;26.40;53.90
3954;DHT22;1991;48.682;9.030;2023-05-07T10:16:34;26.40;54.50
3954;DHT22;1991;48.682;9.030;2023-05-07T10:19:08;26.80;53.70
3954;DHT22;1991;48.682;9.030;2023-05-07T10:21:37;26.20;54.50
3954;DHT22;1991;48.682;9.030;2023-05-07T10:24:09;26.50;54.10
3954;DHT22;1991;48.682;9.030;2023-05-07T10:26:43;26.70;52.80
3954;DHT22;1991;48.682;9.030;2023-05-07T10:29:18;26.90;51.70
3954;DHT22;1991;48.682;9.030;2023-05-07T10:34:45;26.90;53.30
3954;DHT22;1991;48.682;9.030;2023-05-07T10:37:12;27.10;52.90
3954;DHT22;1991;48.682;9.030;2023-05-07T10:39:39;27.50;53.80
3954;DHT22;1991;48.682;9.030;2023-05-07T10:42:09;27.60;52.40
3954;DHT22;1991;48.682;9.030;2023-05-07T10:44:35;27.30;51.50
3954;DHT22;1991;48.682;9.030;2023-05-07T10:47:09;27.20;52.80
3954;DHT22;1991;48.682;9.030;2023-05-07T10:50:20;27.30;53.20
3954;DHT22;1991;48.682;9.030;2023-05-07T10:52:41;27.20;52.50
3954;DHT22;1991;48.682;9.030;2023-05-07T10:57:45;27.60;51.30
3954;DHT22;1991;48.682;9.030;2023-05-07T11:05:30;27.50;51.00
3954;DHT22;1991;48.682;9.030;2023-05-07T11:08:03;27.10;50.80
3954;DHT22;1991;48.682;9.030;2023-05-07T11:10:55;27.30;49.40
3954;DHT22;1991;48.682;9.030;2023-05-07T11:13:44;27.30;49.70
3954;DHT22;1991;48.682;9.030;2023-05-07T11:16:23;27.60;49.90
3954;DHT22;1991;48.682;9.030;2023-05-07T11:18:50;27.60;50.10
3954;DHT22;1991;48.682;9.030;2023-05-07T11:21:35;27.10;50.80
3954;DHT22;1991;48.682;9.030;2023-05-07T11:24:02;26.60;50.80
3954;DHT22;1991;48.682;9.030;2023-05-07T11:26:30;26.10;51.90
3954;DHT22;1991;48.682;9.030;2023-05-07T11:28:57;25.50;53.80
3954;DHT22;1991;48.682;9.030;2023-05-07T11:31:25;25.00;55.10
3954;DHT22;1991;48.682;9.030;2023-05-07T11:33:52;24.70;56.20
3954;DHT22;1991;48.682;9.030;2023-05-07T11:36:19;24.40;56.50
3954;DHT22;1991;48.682;9.030;2023-05-07T11:38:46;24.20;56.80
3954;DHT22;1991;48.682;9.030;2023-05-07T11:41:11;24.00;57.90
3954;DHT22;1991;48.682;9.030;2023-05-07T11:43:37;23.80;57.40
3954;DHT22;1991;48.682;9.030;2023-05-07T11:46:09;23.60;59.20
3954;DHT22;1991;48.682;9.030;2023-05-07T11:48:35;23.50;58.00
3954;DHT22;1991;48.682;9.030;2023-05-07T11:51:06;23.30;59.00
3954;DHT22;1991;48.682;9.030;2023-05-07T11:53:39;23.10;58.90
3954;DHT22;1991;48.682;9.030;2023-05-07T11:56:10;23.00;59.40
3954;DHT22;1991;48.682;9.030;2023-05-07T11:58:36;23.00;62.60
3954;DHT22;1991;48.682;9.030;2023-05-07T12:01:02;22.90;61.70
3954;DHT22;1991;48.682;9.030;2023-05-07T12:03:28;22.60;64.60
3954;DHT22;1991;48.682;9.030;2023-05-07T12:05:53;22.30;65.40
3954;DHT22;1991;48.682;9.030;2023-05-07T12:08:20;21.90;64.80
3954;DHT22;1991;48.682;9.030;2023-05-07T12:10:49;21.40;60.30
3954;DHT22;1991;48.682;9.030;2023-05-07T12:13:18;21.00;56.10
3954;DHT22;1991;48.682;9.030;2023-05-07T12:15:44;20.70;56.40
3954;DHT22;1991;48.682;9.030;2023-05-07T12:18:13;20.50;56.60
3954;DHT22;1991;48.682;9.030;2023-05-07T12:20:39;20.40;58.50
3954;DHT22;1991;48.682;9.030;2023-05-07T12:23:05;20.30;56.30
3954;DHT22;1991;48.682;9.030;2023-05-07T12:25:38;20.10;57.50
3954;DHT22;1991;48.682;9.030;2023-05-07T12:28:04;20.00;58.50
3954;DHT22;1991;48.682;9.030;2023-05-07T12:30:39;19.90;60.00
3954;DHT22;1991;48.682;9.030;2023-05-07T12:33:06;19.80;62.90
3954;DHT22;1991;48.682;9.030;2023-05-07T12:35:36;19.90;64.00
3954;DHT22;1991;48.682;9.030;2023-05-07T12:38:01;19.80;63.60
3954;DHT22;1991;48.682;9.030;2023-05-07T12:40:43;19.40;69.40
3954;DHT22;1991;48.682;9.030;2023-05-07T12:43:21;18.60;76.80
3954;DHT22;1991;48.682;9.030;2023-05-07T12:45:50;18.00;82.90
3954;DHT22;1991;48.682;9.030;2023-05-07T12:48:16;17.70;88.10
3954;DHT22;1991;48.682;9.030;2023-05-07T12:50:42;17.40;99.90
3954;DHT22;1991;48.682;9.030;2023-05-07T12:53:10;17.10;99.90
3954;DHT22;1991;48.682;9.030;2023-05-07T12:55:41;16.90;99.90
3954;DHT22;1991;48.682;9.030;2023-05-07T12:58:08;16.80;99.90
3954;DHT22;1991;48.682;9.030;2023-05-07T13:00:38;16.70;99.90
3954;DHT22;1991;48.682;9.030;2023-05-07T13:03:04;16.60;99.90
3954;DHT22;1991;48.682;9.030;2023-05-07T13:05:31;16.40;99.90
3954;DHT22;1991;48.682;9.030;2023-05-07T13:07:57;16.40;99.90
3954;DHT22;1991;48.682;9.030;2023-05-07T13:10:23;16.40;99.90
3954;DHT22;1991;48.682;9.030;2023-05-07T13:12:49;16.30;99.90
3954;DHT22;1991;48.682;9.030;2023-05-07T13:15:16;16.20;99.90
3954;DHT22;1991;48.682;9.030;2023-05-07T13:17:41;16.20;99.90
3954;DHT22;1991;48.682;9.030;2023-05-07T13:20:09;16.20;99.90
3954;DHT22;1991;48.682;9.030;2023-05-07T13:22:35;16.30;99.90
3954;DHT22;1991;48.682;9.030;2023-05-07T13:25:01;16.30;99.90
3954;DHT22;1991;48.682;9.030;2023-05-07T13:27:27;16.30;99.90
3954;DHT22;1991;48.682;9.030;2023-05-07T13:29:52;16.40;99.90
3954;DHT22;1991;48.682;9.030;2023-05-07T13:32:18;16.40;99.90
3954;DHT22;1991;48.682;9.030;2023-05-07T13:34:44;16.30;99.90
3954;DHT22;1991;48.682;9.030;2023-05-07T13:37:09;16.30;99.90
3954;DHT22;1991;48.682;9.030;2023-05-07T13:39:36;16.20;99.90
3954;DHT22;1991;48.682;9.030;2023-05-07T13:42:01;16.20;99.90
3954;DHT22;1991;48.682;9.030;2023-05-07T13:44:27;16.20;99.90
3954;DHT22;1991;48.682;9.030;2023-05-07T13:46:52;16.30;99.90
3954;DHT22;1991;48.682;9.030;2023-05-07T13:49:18;16.40;99.90
3954;DHT22;1991;48.682;9.030;2023-05-07T13:51:44;16.30;99.90
3954;DHT22;1991;48.682;9.030;2023-05-07T13:54:09;16.30;99.90
3954;DHT22;1991;48.682;9.030;2023-05-07T13:56:35;16.20;99.90
3954;DHT22;1991;48.682;9.030;2023-05-07T13:59:00;16.20;99.90
3954;DHT22;1991;48.682;9.030;2023-05-07T14:01:27;16.20;99.90
3954;DHT22;1991;48.682;9.030;2023-05-07T14:03:52;16.20;99.90
3954;DHT22;1991;48.682;9.030;2023-05-07T14:06:18;16.10;99.90
3954;DHT22;1991;48.682;9.030;2023-05-07T14:08:43;16.00;99.90
3954;DHT22;1991;48.682;9.030;2023-05-07T14:11:09;16.00;99.90
3954;DHT22;1991;48.682;9.030;2023-05-07T14:13:35;16.00;99.90
3954;DHT22;1991;48.682;9.030;2023-05-07T14:16:00;15.90;99.90
3954;DHT22;1991;48.682;9.030;2023-05-07T14:18:26;15.90;99.90
3954;DHT22;1991;48.682;9.030;2023-05-07T14:20:54;15.80;99.90
3954;DHT22;1991;48.682;9.030;2023-05-07T14:23:19;15.70;99.90
3954;DHT22;1991;48.682;9.030;2023-05-07T14:25:47;15.60;99.90
3954;DHT22;1991;48.682;9.030;2023-05-07T14:28:13;15.70;99.90
3954;DHT22;1991;48.682;9.030;2023-05-07T14:30:39;15.60;99.90
3954;DHT22;1991;48.682;9.030;2023-05-07T14:33:04;15.80;99.90
3954;DHT22;1991;48.682;9.030;2023-05-07T14:35:30;15.80;99.90
3954;DHT22;1991;48.682;9.030;2023-05-07T14:37:56;15.80;99.90
3954;DHT22;1991;48.682;9.030;2023-05-07T14:40:22;15.80;99.90
3954;DHT22;1991;48.682;9.030;2023-05-07T14:42:48;15.90;99.90
3954;DHT22;1991;48.682;9.030;2023-05-07T14:45:14;15.90;99.90
3954;DHT22;1991;48.682;9.030;2023-05-07T14:47:40;16.00;99.90
3954;DHT22;1991;48.682;9.030;2023-05-07T14:50:05;16.00;99.90
3954;DHT22;1991;48.682;9.030;2023-05-07T14:52:31;16.10;99.90
3954;DHT22;1991;48.682;9.030;2023-05-07T14:54:57;16.10;99.90
3954;DHT22;1991;48.682;9.030;2023-05-07T14:57:22;16.10;99.90
3954;DHT22;1991;48.682;9.030;2023-05-07T14:59:48;16.10;99.90
3954;DHT22;1991;48.682;9.030;2023-05-07T15:02:14;16.20;99.90
3954;DHT22;1991;48.682;9.030;2023-05-07T15:04:40;16.30;99.90
3954;DHT22;1991;48.682;9.030;2023-05-07T15:07:12;16.40;99.90
3954;DHT22;1991;48.682;9.030;2023-05-07T15:09:43;16.50;99.90
3954;DHT22;1991;48.682;9.030;2023-05-07T15:12:09;16.50;99.90
3954;DHT22;1991;48.682;9.030;2023-05-07T15:14:34;16.50;99.90
3954;DHT22;1991;48.682;9.030;2023-05-07T15:17:00;16.50;99.90
3954;DHT22;1991;48.682;9.030;2023-05-07T15:19:26;16.50;99.90
3954;DHT22;1991;48.682;9.030;2023-05-07T15:21:58;16.60;99.90
3954;DHT22;1991;48.682;9.030;2023-05-07T15:24:24;16.60;99.90
3954;DHT22;1991;48.682;9.030;2023-05-07T15:26:52;16.60;99.90
3954;DHT22;1991;48.682;9.030;2023-05-07T15:29:18;16.60;99.90
3954;DHT22;1991;48.682;9.030;2023-05-07T15:31:44;16.60;99.90
3954;DHT22;1991;48.682;9.030;2023-05-07T15:34:09;16.70;99.90
3954;DHT22;1991;48.682;9.030;2023-05-07T15:36:35;16.70;99.90
3954;DHT22;1991;48.682;9.030;2023-05-07T15:39:01;16.80;99.90
3954;DHT22;1991;48.682;9.030;2023-05-07T15:41:28;16.80;99.90
3954;DHT22;1991;48.682;9.030;2023-05-07T15:43:53;17.00;99.90
3954;DHT22;1991;48.682;9.030;2023-05-07T15:46:20;17.00;99.90
3954;DHT22;1991;48.682;9.030;2023-05-07T15:48:47;17.00;99.90
3954;DHT22;1991;48.682;9.030;2023-05-07T15:51:12;17.10;99.90
3954;DHT22;1991;48.682;9.030;2023-05-07T15:53:38;17.10;99.90
3954;DHT22;1991;48.682;9.030;2023-05-07T15:56:05;17.20;99.90
3954;DHT22;1991;48.682;9.030;2023-05-07T15:58:31;17.30;99.90
3954;DHT22;1991;48.682;9.030;2023-05-07T16:00:59;17.30;99.90
3954;DHT22;1991;48.682;9.030;2023-05-07T16:03:26;17.30;99.90
3954;DHT22;1991;48.682;9.030;2023-05-07T16:05:53;17.30;99.90
3954;DHT22;1991;48.682;9.030;2023-05-07T16:08:18;17.40;99.90
3954;DHT22;1991;48.682;9.030;2023-05-07T16:10:44;17.40;99.90
3954;DHT22;1991;48.682;9.030;2023-05-07T16:13:10;17.30;99.90
3954;DHT22;1991;48.682;9.030;2023-05-07T16:15:35;17.40;99.90
3954;DHT22;1991;48.682;9.030;2023-05-07T16:18:01;17.40;99.90